Terminal Aerodrome Forecast
Issued by NWS

Home | Current Version | Previous Version | Text Only | Print | Product List | Glossary On
Versions: 1 2 3 4 5 6 7 8 9 10 11 12 13 14 15 16 17 18 19 20 21 22 23 24 25
205
FTUS46 KOTX 111136
TAFPUW
TAF
KPUW 111136Z 1112/1212 00000KT P6SM BKN200
     FM111800 11007KT P6SM BKN060 OVC120
     FM120200 11006KT P6SM VCSH SCT020 OVC040=

USA.gov is the U.S. government's official web portal to all federal, state and local government web resources and services.